createdAt,value
2022-09-18T00:02:43.249Z,18
2022-09-18T00:07:55.335Z,18
2022-09-18T00:13:07.172Z,18
2022-09-18T00:18:18.931Z,18
2022-09-18T00:23:35.133Z,18
2022-09-18T00:28:48.856Z,18
2022-09-18T00:34:00.665Z,17
2022-09-18T00:39:12.248Z,17
2022-09-18T00:44:24.342Z,17
2022-09-18T00:49:37.027Z,16
2022-09-18T00:54:48.503Z,16
2022-09-18T01:00:02.506Z,15
2022-09-18T01:05:14.039Z,15
2022-09-18T01:10:26.084Z,15
2022-09-18T01:15:37.894Z,15
2022-09-18T01:20:49.862Z,15
2022-09-18T01:26:01.659Z,15
2022-09-18T01:31:13.970Z,15
2022-09-18T01:36:25.746Z,15
2022-09-18T01:41:37.515Z,15
2022-09-18T01:46:49.702Z,15
2022-09-18T01:52:01.634Z,15
2022-09-18T01:57:13.422Z,15
2022-09-18T02:02:26.383Z,16
2022-09-18T02:07:38.076Z,16
2022-09-18T02:12:49.852Z,16
2022-09-18T02:18:01.901Z,15
2022-09-18T02:23:13.755Z,15
2022-09-18T02:28:25.722Z,15
2022-09-18T02:33:37.543Z,14
2022-09-18T02:38:49.469Z,14
2022-09-18T02:44:01.737Z,14
2022-09-18T02:49:13.595Z,13
2022-09-18T02:54:25.760Z,13
2022-09-18T02:59:37.564Z,12
2022-09-18T03:04:49.519Z,12
2022-09-18T03:10:01.978Z,12
2022-09-18T03:15:13.674Z,12
2022-09-18T03:20:25.563Z,13
2022-09-18T03:25:37.378Z,13
2022-09-18T03:30:48.994Z,14
2022-09-18T03:36:00.971Z,14
2022-09-18T03:41:12.744Z,14
2022-09-18T03:46:24.882Z,14
2022-09-18T03:51:36.614Z,14
2022-09-18T03:56:48.245Z,13
2022-09-18T04:02:00.283Z,13
2022-09-18T04:07:12.023Z,13
2022-09-18T04:17:35.232Z,12
2022-09-18T04:22:47.028Z,12
2022-09-18T04:27:58.918Z,12
2022-09-18T04:33:10.483Z,12
2022-09-18T04:38:22.242Z,12
2022-09-18T04:43:34.043Z,12
2022-09-18T04:48:45.783Z,13
2022-09-18T04:53:57.611Z,13
2022-09-18T04:59:09.349Z,13
2022-09-18T05:04:21.062Z,13
2022-09-18T05:09:32.889Z,13
2022-09-18T05:14:44.719Z,13
2022-09-18T05:19:56.621Z,13
2022-09-18T05:25:08.492Z,13
2022-09-18T05:35:32.182Z,12
2022-09-18T05:40:44.482Z,12
2022-09-18T05:45:56.406Z,12
2022-09-18T05:51:08.215Z,12
2022-09-18T05:56:20.323Z,12
2022-09-18T06:01:32.612Z,12
2022-09-18T06:06:44.232Z,12
2022-09-18T06:11:56.288Z,12
2022-09-18T06:17:08.032Z,12
2022-09-18T06:22:19.834Z,12
2022-09-18T06:27:32.090Z,12
2022-09-18T06:32:44.145Z,12
2022-09-18T06:37:56.259Z,12
2022-09-18T06:43:08.259Z,12
2022-09-18T06:48:20.260Z,13
2022-09-18T06:53:32.011Z,13
2022-09-18T06:58:43.976Z,13
2022-09-18T07:03:56.052Z,13
2022-09-18T07:09:07.907Z,13
2022-09-18T07:14:20.021Z,14
2022-09-18T07:19:32.119Z,14
2022-09-18T07:24:43.971Z,15
2022-09-18T07:29:56.335Z,15
2022-09-18T07:35:08.458Z,16
2022-09-18T07:40:20.565Z,17
2022-09-18T07:45:32.481Z,18
2022-09-18T07:50:44.730Z,18
2022-09-18T07:55:56.715Z,18
2022-09-18T08:01:08.727Z,19
2022-09-18T08:06:21.264Z,21
2022-09-18T08:11:33.032Z,23
2022-09-18T08:16:45.686Z,23
2022-09-18T08:21:57.819Z,25
2022-09-18T08:27:09.848Z,27
2022-09-18T08:32:22.251Z,28
2022-09-18T08:37:34.211Z,30
2022-09-18T08:42:46.278Z,32
2022-09-18T08:47:58.557Z,32
2022-09-18T08:53:10.654Z,30
2022-09-18T08:58:22.660Z,33
2022-09-18T09:03:35.065Z,30
2022-09-18T09:08:47.121Z,30
2022-09-18T09:13:58.985Z,30
2022-09-18T09:19:11.073Z,30
2022-09-18T09:24:23.284Z,29
2022-09-18T09:29:35.384Z,30
2022-09-18T09:34:47.673Z,29
2022-09-18T09:40:00.236Z,32
2022-09-18T09:45:12.439Z,32
2022-09-18T09:50:24.670Z,32
2022-09-18T09:55:37.172Z,33
2022-09-18T10:00:49.768Z,35
2022-09-18T10:06:01.700Z,34
2022-09-18T10:11:14.059Z,34
2022-09-18T10:16:26.396Z,37
2022-09-18T10:21:38.766Z,37
2022-09-18T10:26:51.213Z,39
2022-09-18T10:32:03.276Z,37
2022-09-18T10:37:15.546Z,40
2022-09-18T10:42:27.954Z,38
2022-09-18T10:47:40.128Z,36
2022-09-18T10:52:52.364Z,38
2022-09-18T10:58:04.643Z,37
2022-09-18T11:03:16.745Z,40
2022-09-18T11:08:28.964Z,89
2022-09-18T11:13:46.554Z,80
2022-09-18T11:19:08.336Z,81
2022-09-18T11:24:22.304Z,70
2022-09-18T11:29:36.170Z,66
2022-09-18T11:34:49.774Z,62
2022-09-18T11:45:14.305Z,56
2022-09-18T11:50:27.815Z,55
2022-09-18T12:00:52.315Z,52
2022-09-18T12:06:05.887Z,50
2022-09-18T12:16:29.045Z,51
2022-09-18T12:21:42.051Z,47
2022-09-18T12:26:54.540Z,44
2022-09-18T12:37:18.165Z,46
2022-09-18T12:47:51.324Z,47
2022-09-18T12:58:14.879Z,46
2022-09-18T13:13:49.957Z,50
2022-09-18T13:19:03.051Z,47
2022-09-18T13:34:37.430Z,51
2022-09-18T14:05:42.208Z,51
2022-09-18T14:16:05.005Z,50
2022-09-18T14:21:17.788Z,49
2022-09-18T14:26:30.201Z,50
2022-09-18T14:31:43.238Z,51
2022-09-18T14:36:56.756Z,50
2022-09-18T14:42:08.965Z,51
2022-09-18T14:47:21.542Z,50
2022-09-18T14:57:44.360Z,51
2022-09-18T15:08:07.152Z,51
2022-09-18T15:13:20.075Z,50
2022-09-18T15:18:32.368Z,49
2022-09-18T15:23:44.522Z,51
2022-09-18T15:28:57.190Z,51
2022-09-18T15:34:09.566Z,50
2022-09-18T15:39:21.802Z,49
2022-09-18T15:44:34.597Z,50
2022-09-18T15:54:57.201Z,51
2022-09-18T16:00:09.681Z,52
2022-09-18T16:05:22.291Z,52
2022-09-18T16:10:34.324Z,53
2022-09-18T16:15:49.990Z,58
2022-09-18T16:21:04.624Z,58
2022-09-18T16:26:16.890Z,61
2022-09-18T16:31:29.790Z,63
2022-09-18T16:36:54.380Z,66
2022-09-18T16:42:05.170Z,67
2022-09-18T16:47:18.320Z,70
2022-09-18T16:57:40.405Z,73
2022-09-18T17:02:53.094Z,74
2022-09-18T17:08:05.980Z,77
2022-09-18T17:13:17.913Z,80
2022-09-18T17:23:40.595Z,85
2022-09-18T17:28:52.785Z,87
2022-09-18T17:34:06.191Z,88
2022-09-18T17:39:18.238Z,88
2022-09-18T17:44:30.163Z,89
2022-09-18T17:49:42.362Z,89
2022-09-18T17:54:54.803Z,89
2022-09-18T18:00:06.951Z,89
2022-09-18T18:05:19.110Z,89
2022-09-18T18:10:31.628Z,90
2022-09-18T18:15:44.553Z,89
2022-09-18T18:20:56.577Z,88
2022-09-18T18:26:08.964Z,87
2022-09-18T18:31:21.230Z,87
2022-09-18T18:36:33.326Z,86
2022-09-18T18:41:45.829Z,86
2022-09-18T18:46:58.343Z,84
2022-09-18T18:52:11.299Z,84
2022-09-18T18:57:25.020Z,82
2022-09-18T19:02:37.540Z,81
2022-09-18T19:07:50.272Z,79
2022-09-18T19:13:03.564Z,78
2022-09-18T19:18:20.392Z,77
2022-09-18T19:23:36.307Z,74
2022-09-18T19:34:19.589Z,72
2022-09-18T19:39:35.334Z,73
2022-09-18T19:44:48.608Z,72
2022-09-18T19:50:03.257Z,70
2022-09-18T19:55:15.764Z,54
2022-09-18T20:00:28.506Z,55
2022-09-18T20:05:42.052Z,53
2022-09-18T20:10:54.211Z,51
2022-09-18T20:16:08.848Z,49
2022-09-18T20:21:30.501Z,51
2022-09-18T20:26:41.465Z,52
2022-09-18T20:32:05.381Z,53
2022-09-18T20:37:20.074Z,56
2022-09-18T20:42:33.779Z,58
2022-09-18T20:47:46.251Z,58
2022-09-18T20:53:00.709Z,57
2022-09-18T20:58:18.171Z,57
2022-09-18T21:03:31.232Z,57
2022-09-18T21:08:44.888Z,56
2022-09-18T21:13:57.047Z,55
2022-09-18T21:19:09.580Z,54
2022-09-18T21:24:22.945Z,54
2022-09-18T21:29:34.992Z,54
2022-09-18T21:34:47.186Z,52
2022-09-18T21:40:00.061Z,50
2022-09-18T21:45:12.741Z,43
2022-09-18T21:50:24.716Z,42
2022-09-18T21:55:36.940Z,40
2022-09-18T22:00:48.965Z,39
2022-09-18T22:06:00.927Z,38
2022-09-18T22:11:12.850Z,32
2022-09-18T22:16:25.071Z,32
2022-09-18T22:21:36.958Z,33
2022-09-18T22:26:49.433Z,34
2022-09-18T22:32:01.358Z,35
2022-09-18T22:37:13.206Z,35
2022-09-18T22:42:25.421Z,31
2022-09-18T22:47:37.251Z,32
2022-09-18T22:52:49.331Z,34
2022-09-18T22:58:01.940Z,36
2022-09-18T23:03:13.665Z,36
2022-09-18T23:08:25.624Z,35
2022-09-18T23:13:38.368Z,35
2022-09-18T23:18:50.296Z,33
2022-09-18T23:24:09.798Z,28
2022-09-18T23:29:21.964Z,27
2022-09-18T23:34:33.773Z,27
2022-09-18T23:39:45.764Z,22
2022-09-18T23:44:58.237Z,22
2022-09-18T23:50:10.017Z,22
2022-09-18T23:55:22.262Z,22
